createdAt,value
2022-08-07T00:04:58.910Z,5.40
2022-08-07T00:07:27.292Z,5.43
2022-08-07T00:25:26.733Z,5.30
2022-08-07T00:27:56.682Z,4.82
2022-08-07T00:30:28.570Z,5.03
2022-08-07T00:33:01.254Z,5.18
2022-08-07T00:38:42.150Z,5.03
2022-08-07T00:41:15.104Z,5.45
2022-08-07T00:50:50.796Z,5.60
2022-08-07T00:56:56.834Z,5.13
2022-08-07T00:59:35.387Z,5.55
2022-08-07T01:02:29.686Z,5.38
2022-08-07T01:04:59.354Z,6.28
2022-08-07T01:07:29.639Z,5.93
2022-08-07T01:10:06.067Z,6.63
2022-08-07T01:12:53.087Z,5.80
2022-08-07T01:16:00.657Z,5.82
2022-08-07T01:18:16.880Z,5.78
2022-08-07T01:20:57.324Z,5.75
2022-08-07T01:23:36.739Z,5.78
2022-08-07T01:26:12.079Z,5.40
2022-08-07T01:28:52.009Z,5.40
2022-08-07T01:31:42.361Z,5.95
2022-08-07T01:34:14.481Z,5.68
2022-08-07T01:36:57.649Z,5.95
2022-08-07T01:39:40.482Z,5.70
2022-08-07T01:42:39.473Z,5.68
2022-08-07T01:45:09.966Z,5.32
2022-08-07T01:48:29.365Z,5.68
2022-08-07T01:50:40.282Z,5.93
2022-08-07T01:53:20.857Z,5.43
2022-08-07T01:56:03.288Z,5.72
2022-08-07T01:58:40.159Z,5.35
2022-08-07T02:02:02.432Z,6.15
2022-08-07T02:05:16.150Z,5.72
2022-08-07T02:08:10.464Z,6.10
2022-08-07T02:10:54.882Z,5.57
2022-08-07T02:13:58.068Z,4.95
2022-08-07T02:16:33.301Z,5.40
2022-08-07T02:20:04.903Z,5.60
2022-08-07T02:21:58.674Z,6.20
2022-08-07T02:24:29.312Z,6.43
2022-08-07T02:27:02.576Z,5.90
2022-08-07T02:29:43.545Z,6.38
2022-08-07T02:32:26.989Z,6.15
2022-08-07T02:35:00.977Z,6.03
2022-08-07T02:37:58.232Z,7.40
2022-08-07T02:40:34.992Z,5.93
2022-08-07T02:43:07.794Z,6.00
2022-08-07T02:46:03.741Z,5.80
2022-08-07T02:48:34.457Z,6.65
2022-08-07T02:51:28.876Z,7.03
2022-08-07T02:54:03.736Z,5.47
2022-08-07T02:56:33.689Z,5.75
2022-08-07T02:59:06.132Z,6.53
2022-08-07T03:01:39.966Z,5.50
2022-08-07T03:04:17.203Z,6.53
2022-08-07T03:06:48.370Z,6.30
2022-08-07T03:09:42.101Z,5.85
2022-08-07T03:12:16.175Z,7.93
2022-08-07T03:14:52.839Z,6.50
2022-08-07T03:17:23.191Z,7.00
2022-08-07T03:19:55.537Z,6.90
2022-08-07T03:22:29.562Z,6.68
2022-08-07T03:25:00.361Z,6.65
2022-08-07T03:27:59.400Z,6.97
2022-08-07T03:30:24.407Z,6.60
2022-08-07T03:32:58.643Z,6.53
2022-08-07T03:35:43.889Z,5.97
2022-08-07T03:38:45.968Z,5.80
2022-08-07T03:41:16.255Z,5.80
2022-08-07T03:43:56.891Z,6.18
2022-08-07T03:46:31.898Z,5.93
2022-08-07T03:49:05.324Z,4.85
2022-08-07T03:51:47.801Z,5.45
2022-08-07T03:54:35.726Z,5.28
2022-08-07T03:58:32.597Z,5.00
2022-08-07T04:00:36.772Z,5.00
2022-08-07T04:03:05.814Z,4.97
2022-08-07T04:05:42.448Z,5.72
2022-08-07T04:08:20.885Z,5.10
2022-08-07T04:10:54.617Z,4.20
2022-08-07T04:14:10.310Z,4.78
2022-08-07T04:16:35.349Z,4.63
2022-08-07T04:19:14.894Z,5.18
2022-08-07T04:22:19.585Z,4.57
2022-08-07T04:24:51.571Z,5.05
2022-08-07T04:28:00.301Z,4.80
2022-08-07T04:30:39.527Z,4.88
2022-08-07T04:33:28.944Z,4.30
2022-08-07T04:36:00.732Z,4.70
2022-08-07T04:38:36.420Z,4.20
2022-08-07T04:41:05.069Z,4.18
2022-08-07T04:44:12.928Z,4.63
2022-08-07T04:47:04.591Z,4.20
2022-08-07T04:49:57.444Z,3.90
2022-08-07T04:52:34.656Z,4.70
2022-08-07T04:58:16.215Z,4.18
2022-08-07T04:59:09.068Z,3.80
2022-08-07T05:01:36.021Z,3.88
2022-08-07T05:04:22.784Z,4.38
2022-08-07T05:07:20.488Z,3.97
2022-08-07T05:10:04.695Z,4.13
2022-08-07T05:12:58.506Z,3.75
2022-08-07T05:15:36.149Z,3.70
2022-08-07T05:18:25.426Z,3.63
2022-08-07T05:20:56.918Z,3.67
2022-08-07T05:23:52.789Z,4.00
2022-08-07T05:26:26.210Z,3.50
2022-08-07T05:29:10.401Z,3.17
2022-08-07T05:31:41.372Z,2.90
2022-08-07T05:34:26.362Z,3.50
2022-08-07T05:36:57.734Z,3.33
2022-08-07T05:40:13.423Z,3.58
2022-08-07T05:42:55.878Z,3.00
2022-08-07T05:46:12.204Z,2.72
2022-08-07T05:48:58.198Z,3.10
2022-08-07T05:54:55.824Z,6.18
2022-08-07T05:57:30.478Z,3.55
2022-08-07T06:00:05.068Z,3.67
2022-08-07T06:02:50.659Z,3.85
2022-08-07T06:05:23.177Z,2.80
2022-08-07T06:08:14.392Z,1.80
2022-08-07T06:10:51.329Z,2.08
2022-08-07T06:14:11.595Z,3.42
2022-08-07T06:16:13.270Z,1.90
2022-08-07T06:18:51.708Z,2.17
2022-08-07T06:22:15.814Z,1.70
2022-08-07T06:24:45.814Z,1.75
2022-08-07T06:27:04.110Z,1.38
2022-08-07T06:29:35.133Z,2.05
2022-08-07T06:32:08.453Z,1.60
2022-08-07T06:34:36.253Z,1.73
2022-08-07T06:37:17.204Z,1.77
2022-08-07T06:40:16.668Z,2.17
2022-08-07T06:42:37.700Z,2.50
2022-08-07T06:45:30.258Z,1.80
2022-08-07T06:48:02.377Z,2.00
2022-08-07T06:50:43.251Z,1.65
2022-08-07T06:54:12.179Z,1.80
2022-08-07T06:56:15.418Z,1.55
2022-08-07T07:00:14.211Z,1.70
2022-08-07T07:01:44.099Z,2.60
2022-08-07T07:04:32.220Z,1.77
2022-08-07T07:07:10.641Z,1.77
2022-08-07T07:09:49.161Z,1.50
2022-08-07T07:12:37.583Z,2.10
2022-08-07T07:15:26.499Z,2.05
2022-08-07T07:18:47.499Z,1.95
2022-08-07T07:21:22.189Z,1.70
2022-08-07T07:24:08.775Z,1.90
2022-08-07T07:26:49.689Z,2.13
2022-08-07T07:29:39.520Z,1.63
2022-08-07T07:32:14.568Z,1.75
2022-08-07T07:34:55.982Z,2.10
2022-08-07T07:37:47.256Z,1.70
2022-08-07T07:40:19.738Z,2.00
2022-08-07T07:42:54.066Z,2.03
2022-08-07T07:46:37.414Z,1.83
2022-08-07T07:48:35.258Z,1.90
2022-08-07T07:51:07.918Z,2.40
2022-08-07T07:53:52.184Z,2.40
2022-08-07T07:56:29.697Z,2.03
2022-08-07T07:59:01.705Z,2.00
2022-08-07T08:02:01.888Z,2.80
2022-08-07T08:04:25.851Z,1.58
2022-08-07T08:06:56.257Z,2.15
2022-08-07T08:09:29.486Z,2.10
2022-08-07T08:12:02.316Z,1.50
2022-08-07T08:14:37.050Z,1.75
2022-08-07T08:17:55.576Z,1.70
2022-08-07T08:20:17.329Z,1.90
2022-08-07T08:23:14.261Z,3.15
2022-08-07T08:26:06.984Z,1.92
2022-08-07T08:28:44.724Z,3.30
2022-08-07T08:31:30.189Z,3.33
2022-08-07T08:34:12.481Z,2.17
2022-08-07T08:36:59.398Z,2.08
2022-08-07T08:39:39.003Z,2.38
2022-08-07T08:42:16.148Z,1.73
2022-08-07T08:45:18.661Z,1.48
2022-08-07T08:48:15.482Z,1.73
2022-08-07T08:50:52.538Z,1.40
2022-08-07T08:53:43.182Z,1.63
2022-08-07T08:56:26.280Z,1.50
2022-08-07T08:59:25.082Z,1.42
2022-08-07T09:01:59.538Z,1.92
2022-08-07T09:04:59.904Z,2.58
2022-08-07T09:08:08.879Z,3.33
2022-08-07T09:10:52.999Z,2.10
2022-08-07T09:13:37.120Z,2.17
2022-08-07T09:16:29.876Z,1.70
2022-08-07T09:19:44.805Z,1.67
2022-08-07T09:24:27.167Z,2.45
2022-08-07T09:25:17.284Z,1.70
2022-08-07T09:28:03.007Z,1.70
2022-08-07T09:30:59.282Z,1.60
2022-08-07T09:33:58.289Z,2.03
2022-08-07T09:36:27.136Z,1.50
2022-08-07T09:39:52.999Z,1.90
2022-08-07T09:42:33.674Z,1.70
2022-08-07T09:47:25.693Z,1.38
2022-08-07T09:48:29.826Z,1.90
2022-08-07T09:52:15.631Z,2.40
2022-08-07T09:54:47.123Z,1.45
2022-08-07T09:57:46.504Z,1.30
2022-08-07T10:00:20.370Z,1.40
2022-08-07T10:04:05.879Z,1.45
2022-08-07T10:06:55.536Z,1.58
2022-08-07T10:10:00.137Z,1.20
2022-08-07T10:12:53.040Z,1.33
2022-08-07T10:15:50.014Z,0.95
2022-08-07T10:18:53.111Z,1.20
2022-08-07T10:22:12.474Z,1.40
2022-08-07T10:24:39.992Z,1.02
2022-08-07T10:27:17.830Z,1.52
2022-08-07T10:30:07.160Z,1.60
2022-08-07T10:33:15.084Z,1.42
2022-08-07T10:36:14.328Z,0.95
2022-08-07T10:39:02.141Z,1.02
2022-08-07T10:42:00.382Z,0.80
2022-08-07T10:44:50.194Z,1.00
2022-08-07T10:47:26.994Z,0.90
2022-08-07T10:50:25.934Z,1.20
2022-08-07T10:53:08.854Z,1.33
2022-08-07T10:55:43.190Z,1.35
2022-08-07T10:58:32.103Z,1.17
2022-08-07T11:01:23.678Z,1.13
2022-08-07T11:04:23.372Z,0.90
2022-08-07T11:07:56.261Z,0.85
2022-08-07T11:10:20.294Z,1.27
2022-08-07T11:13:04.022Z,1.23
2022-08-07T11:15:38.742Z,0.93
2022-08-07T11:18:31.659Z,1.00
2022-08-07T11:21:11.447Z,1.90
2022-08-07T11:24:11.773Z,1.17
2022-08-07T11:26:51.490Z,1.15
2022-08-07T11:29:42.193Z,1.10
2022-08-07T11:32:33.370Z,1.58
2022-08-07T11:35:10.094Z,2.72
2022-08-07T11:38:10.173Z,1.30
2022-08-07T11:41:04.144Z,0.90
2022-08-07T11:44:11.146Z,0.80
2022-08-07T11:46:48.617Z,1.40
2022-08-07T11:50:30.073Z,1.08
2022-08-07T11:52:35.686Z,0.90
2022-08-07T11:56:14.045Z,1.63
2022-08-07T11:58:55.251Z,1.48
2022-08-07T12:02:02.513Z,1.08
2022-08-07T12:05:04.530Z,0.80
2022-08-07T12:08:04.036Z,1.63
2022-08-07T12:10:42.538Z,1.00
2022-08-07T12:13:36.731Z,1.05
2022-08-07T12:16:35.507Z,1.17
2022-08-07T12:20:02.741Z,0.95
2022-08-07T12:22:58.315Z,1.10
2022-08-07T12:26:05.391Z,1.75
2022-08-07T12:29:09.913Z,0.90
2022-08-07T12:32:02.266Z,1.10
2022-08-07T12:34:34.744Z,1.15
2022-08-07T12:37:16.244Z,1.45
2022-08-07T12:39:57.843Z,1.10
2022-08-07T12:42:28.555Z,0.90
2022-08-07T12:45:06.659Z,1.00
2022-08-07T12:47:46.336Z,2.78
2022-08-07T12:50:40.351Z,1.85
2022-08-07T12:54:36.419Z,1.33
2022-08-07T12:56:32.028Z,1.63
2022-08-07T12:59:02.877Z,1.25
2022-08-07T13:02:22.277Z,1.40
2022-08-07T13:06:02.848Z,1.60
2022-08-07T13:08:31.952Z,1.20
2022-08-07T13:11:09.112Z,2.10
2022-08-07T13:14:09.081Z,1.13
2022-08-07T13:17:01.276Z,2.08
2022-08-07T13:19:51.624Z,1.30
2022-08-07T13:22:37.877Z,1.50
2022-08-07T13:25:15.270Z,1.30
2022-08-07T13:28:11.458Z,1.23
2022-08-07T13:31:01.408Z,0.93
2022-08-07T13:34:32.757Z,1.00
2022-08-07T13:37:00.039Z,1.10
2022-08-07T13:40:33.469Z,1.33
2022-08-07T13:42:39.750Z,1.77
2022-08-07T13:45:20.910Z,1.20
2022-08-07T13:51:27.235Z,1.80
2022-08-07T13:54:00.625Z,1.17
2022-08-07T13:56:36.342Z,1.67
2022-08-07T13:59:15.964Z,1.90
2022-08-07T14:02:03.885Z,1.23
2022-08-07T14:04:36.075Z,1.40
2022-08-07T14:07:10.133Z,1.70
2022-08-07T14:10:12.340Z,1.40
2022-08-07T14:15:42.148Z,1.35
2022-08-07T14:18:28.314Z,2.08
2022-08-07T14:22:02.487Z,1.40
2022-08-07T14:24:33.459Z,1.30
2022-08-07T14:28:09.908Z,1.25
2022-08-07T14:30:04.933Z,1.10
2022-08-07T14:32:48.368Z,1.17
2022-08-07T14:35:44.996Z,1.38
2022-08-07T14:38:26.626Z,1.50
2022-08-07T14:41:04.136Z,1.23
2022-08-07T14:43:58.582Z,1.10
2022-08-07T14:49:16.118Z,0.80
2022-08-07T14:54:59.568Z,1.20
2022-08-07T14:57:58.126Z,1.65
2022-08-07T15:03:00.316Z,1.10
2022-08-07T15:05:55.072Z,2.00
2022-08-07T15:08:54.514Z,1.80
2022-08-07T15:11:50.753Z,1.38
2022-08-07T15:14:21.596Z,1.40
2022-08-07T15:17:00.539Z,1.60
2022-08-07T15:20:33.185Z,1.30
2022-08-07T15:22:33.436Z,1.40
2022-08-07T15:25:17.124Z,1.73
2022-08-07T15:28:30.847Z,1.23
2022-08-07T15:34:01.113Z,1.27
2022-08-07T15:37:03.786Z,1.30
2022-08-07T15:39:17.815Z,1.30
2022-08-07T15:42:44.621Z,1.75
2022-08-07T15:44:53.015Z,1.25
2022-08-07T15:50:37.986Z,1.40
2022-08-07T15:56:02.540Z,1.30
2022-08-07T15:59:00.481Z,1.30
2022-08-07T16:01:45.039Z,1.20
2022-08-07T16:04:33.641Z,1.17
2022-08-07T16:08:31.347Z,1.33
2022-08-07T16:10:14.635Z,1.83
2022-08-07T16:13:58.962Z,1.65
2022-08-07T16:17:03.245Z,1.70
2022-08-07T16:20:33.965Z,1.23
2022-08-07T16:23:54.331Z,1.30
2022-08-07T16:26:59.395Z,1.40
2022-08-07T16:30:30.534Z,1.67
2022-08-07T16:34:02.678Z,1.17
2022-08-07T16:39:48.706Z,1.90
2022-08-07T16:42:34.250Z,1.73
2022-08-07T16:45:07.909Z,2.45
2022-08-07T16:50:13.775Z,1.85
2022-08-07T16:52:35.308Z,1.58
2022-08-07T16:55:08.442Z,1.50
2022-08-07T16:58:04.253Z,2.08
2022-08-07T17:00:44.792Z,1.80
2022-08-07T17:03:58.551Z,1.75
2022-08-07T17:06:57.918Z,1.67
2022-08-07T17:10:06.346Z,3.83
2022-08-07T17:13:14.312Z,1.83
2022-08-07T17:15:51.842Z,1.83
2022-08-07T17:18:30.336Z,1.52
2022-08-07T17:20:58.860Z,1.30
2022-08-07T17:23:41.659Z,1.75
2022-08-07T17:26:23.430Z,1.85
2022-08-07T17:29:08.621Z,1.73
2022-08-07T17:32:03.206Z,1.63
2022-08-07T17:35:33.023Z,1.70
2022-08-07T17:38:05.568Z,1.98
2022-08-07T17:42:02.295Z,2.75
2022-08-07T17:44:33.782Z,2.10
2022-08-07T17:47:44.438Z,1.80
2022-08-07T17:51:01.690Z,1.67
2022-08-07T17:54:00.983Z,4.20
2022-08-07T17:56:35.048Z,3.00
2022-08-07T17:59:35.599Z,3.55
2022-08-07T18:02:39.530Z,2.38
2022-08-07T18:06:03.208Z,2.35
2022-08-07T18:09:01.038Z,2.17
2022-08-07T18:12:18.117Z,2.20
2022-08-07T18:15:32.933Z,2.20
2022-08-07T18:18:47.013Z,2.67
2022-08-07T18:21:38.365Z,2.78
2022-08-07T18:24:09.257Z,1.90
2022-08-07T18:26:40.470Z,2.58
2022-08-07T18:30:06.081Z,2.47
2022-08-07T18:32:41.688Z,2.30
2022-08-07T18:35:50.320Z,3.03
2022-08-07T18:40:06.667Z,2.75
2022-08-07T18:42:21.766Z,2.60
2022-08-07T18:45:44.771Z,3.17
2022-08-07T18:50:05.574Z,6.55
2022-08-07T18:52:33.515Z,4.03
2022-08-07T18:54:53.606Z,3.33
2022-08-07T18:57:58.585Z,3.85
2022-08-07T19:00:55.187Z,3.70
2022-08-07T19:03:49.726Z,5.43
2022-08-07T19:06:48.295Z,6.05
2022-08-07T19:09:56.886Z,10.25
2022-08-07T19:12:59.539Z,5.45
2022-08-07T19:16:05.586Z,6.30
2022-08-07T19:18:58.651Z,7.47
2022-08-07T19:25:06.905Z,7.20
2022-08-07T19:30:54.166Z,25.42
2022-08-07T19:31:41.708Z,34.40
2022-08-07T19:33:56.445Z,16.73
2022-08-07T19:36:30.660Z,5.40
2022-08-07T19:39:09.098Z,5.85
2022-08-07T19:42:05.885Z,5.80
2022-08-07T19:45:13.137Z,5.35
2022-08-07T19:48:02.588Z,4.78
2022-08-07T19:50:43.802Z,4.80
2022-08-07T19:54:31.588Z,7.38
2022-08-07T19:58:00.427Z,6.05
2022-08-07T20:00:39.349Z,6.65
2022-08-07T20:03:35.646Z,12.73
2022-08-07T20:06:15.248Z,4.60
2022-08-07T20:09:03.074Z,4.57
2022-08-07T20:12:22.090Z,4.47
2022-08-07T20:14:32.986Z,5.80
2022-08-07T20:17:07.260Z,5.18
2022-08-07T20:19:49.402Z,6.05
2022-08-07T20:22:34.546Z,5.53
2022-08-07T20:25:12.961Z,5.70
2022-08-07T20:27:54.111Z,5.18
2022-08-07T20:30:33.483Z,5.85
2022-08-07T20:33:08.915Z,4.47
2022-08-07T20:35:51.835Z,4.90
2022-08-07T20:38:24.839Z,5.22
2022-08-07T20:41:02.036Z,5.47
2022-08-07T20:43:34.218Z,5.07
2022-08-07T20:46:29.182Z,5.82
2022-08-07T20:49:58.948Z,5.68
2022-08-07T20:51:52.280Z,6.25
2022-08-07T20:54:29.897Z,5.60
2022-08-07T20:57:05.298Z,5.40
2022-08-07T21:00:06.501Z,5.70
2022-08-07T21:02:53.846Z,7.05
2022-08-07T21:05:51.298Z,5.68
2022-08-07T21:08:42.375Z,6.20
2022-08-07T21:11:17.636Z,6.70
2022-08-07T21:14:16.394Z,5.85
2022-08-07T21:16:57.057Z,6.13
2022-08-07T21:19:51.175Z,6.18
2022-08-07T21:22:28.497Z,7.00
2022-08-07T21:25:20.688Z,6.75
2022-08-07T21:28:05.968Z,6.95
2022-08-07T21:34:34.119Z,7.50
2022-08-07T21:37:22.665Z,7.65
2022-08-07T21:40:27.644Z,7.70
2022-08-07T21:43:22.896Z,8.02
2022-08-07T21:46:24.324Z,8.45
2022-08-07T21:49:25.625Z,7.85
2022-08-07T21:54:46.018Z,9.20
2022-08-07T21:57:53.849Z,7.97
2022-08-07T22:00:50.019Z,8.55
2022-08-07T22:04:00.662Z,7.82
2022-08-07T22:07:09.853Z,8.32
2022-08-07T22:09:54.329Z,8.38
2022-08-07T22:12:44.265Z,7.50
2022-08-07T22:16:38.694Z,7.65
2022-08-07T22:18:56.066Z,8.40
2022-08-07T22:22:04.834Z,7.82
2022-08-07T22:24:32.846Z,7.40
2022-08-07T22:27:16.029Z,8.60
2022-08-07T22:29:52.571Z,7.70
2022-08-07T22:32:33.504Z,7.68
2022-08-07T22:35:03.296Z,7.13
2022-08-07T22:38:03.176Z,8.13
2022-08-07T22:41:10.131Z,8.18
2022-08-07T22:44:08.396Z,8.30
2022-08-07T22:47:04.458Z,7.88
2022-08-07T22:49:54.389Z,8.20
2022-08-07T22:52:51.086Z,7.70
2022-08-07T22:55:52.456Z,7.97
2022-08-07T23:01:15.835Z,7.93
2022-08-07T23:03:58.548Z,8.75
2022-08-07T23:06:33.838Z,9.48
2022-08-07T23:10:03.697Z,9.20
2022-08-07T23:13:15.512Z,10.35
2022-08-07T23:16:06.647Z,9.52
2022-08-07T23:19:38.796Z,9.63
2022-08-07T23:23:05.020Z,10.77
2022-08-07T23:25:56.744Z,14.52
2022-08-07T23:28:54.638Z,12.55
2022-08-07T23:32:49.545Z,10.32
2022-08-07T23:34:54.393Z,8.90
2022-08-07T23:38:01.532Z,9.02
2022-08-07T23:40:36.584Z,8.93
2022-08-07T23:43:39.114Z,7.68
2022-08-07T23:46:54.859Z,8.27
2022-08-07T23:49:50.117Z,8.15
2022-08-07T23:53:05.193Z,9.30
2022-08-07T23:55:51.908Z,8.30
2022-08-07T23:59:10.444Z,7.90
